Auberry, California
Current Conditions -  °F | °C
As of 8:53 AM on Friday 19 Dec 2014 (Local Time) from KFAT Reporting Station
Overcast Overcast  
Wind Chill: 45°   Ceiling: 13000
Heat Index: 48°   Visibility: 10mi
Dew Point: 43°   Wind: 7mph
Humidity: 83%   Direction: 130°SE
Pressure: 30.21"   Gusts: NA
Location:  37.08°N, 119.49°W
Report Text: KFAT 191653Z 13006KT 10SM FEW080 BKN130 OVC180 09/06 A3021 RMK AO2 SLP231 T00890061
Loading
Personal Weather Stations






























Interactive Weather Map New forecast layout! Learn more

10-Day Weather Forecast

Advertisements
Track Severe Weather on mobile